createdAt,value
2022-09-14T00:00:17.679Z,94.25
2022-09-14T00:03:08.797Z,94.23
2022-09-14T00:05:39.889Z,94.29
2022-09-14T00:08:08.317Z,94.33
2022-09-14T00:10:57.060Z,94.53
2022-09-14T00:13:28.553Z,94.67
2022-09-14T00:15:57.444Z,94.77
2022-09-14T00:18:34.133Z,94.81
2022-09-14T00:21:08.645Z,94.85
2022-09-14T00:23:39.348Z,95.06
2022-09-14T00:26:15.596Z,95.20
2022-09-14T00:28:53.526Z,95.00
2022-09-14T00:31:23.660Z,95.29
2022-09-14T00:33:53.641Z,95.38
2022-09-14T00:36:25.405Z,95.53
2022-09-14T00:39:01.016Z,95.61
2022-09-14T00:41:35.870Z,95.67
2022-09-14T00:44:29.464Z,95.52
2022-09-14T00:47:00.884Z,95.87
2022-09-14T00:49:37.289Z,95.93
2022-09-14T00:52:11.395Z,95.96
2022-09-14T00:54:52.226Z,95.76
2022-09-14T00:57:24.796Z,95.72
2022-09-14T00:59:54.285Z,95.74
2022-09-14T01:02:24.332Z,95.84
2022-09-14T01:04:52.951Z,95.82
2022-09-14T01:07:59.726Z,95.91
2022-09-14T01:11:03.113Z,95.95
2022-09-14T01:14:09.584Z,95.99
2022-09-14T01:16:44.243Z,95.97
2022-09-14T01:19:31.174Z,96.17
2022-09-14T01:22:15.273Z,96.25
2022-09-14T01:25:16.530Z,96.25
2022-09-14T01:27:52.480Z,96.33
2022-09-14T01:30:23.365Z,96.31
2022-09-14T01:33:04.293Z,96.45
2022-09-14T01:35:44.345Z,96.33
2022-09-14T01:38:23.623Z,96.29
2022-09-14T01:40:52.825Z,96.35
2022-09-14T01:43:36.854Z,96.45
2022-09-14T01:46:33.169Z,96.54
2022-09-14T01:49:33.134Z,96.55
2022-09-14T01:52:28.678Z,96.25
2022-09-14T01:55:23.401Z,96.28
2022-09-14T01:57:59.545Z,96.34
2022-09-14T02:00:34.446Z,96.07
2022-09-14T02:03:14.151Z,96.14
2022-09-14T02:05:54.130Z,96.27
2022-09-14T02:08:23.636Z,96.26
2022-09-14T02:10:52.099Z,96.28
2022-09-14T02:13:20.363Z,96.28
2022-09-14T02:15:54.773Z,96.21
2022-09-14T02:18:34.275Z,96.22
2022-09-14T02:21:12.760Z,95.94
2022-09-14T02:23:41.165Z,95.90
2022-09-14T02:26:14.620Z,95.87
2022-09-14T02:28:42.978Z,95.71
2022-09-14T02:31:38.592Z,95.28
2022-09-14T02:34:53.662Z,95.20
2022-09-14T02:38:11.176Z,95.00
2022-09-14T02:41:34.925Z,94.82
2022-09-14T02:44:14.971Z,94.70
2022-09-14T02:46:43.157Z,94.53
2022-09-14T02:49:37.769Z,94.59
2022-09-14T02:52:09.080Z,94.59
2022-09-14T02:55:14.170Z,94.55
2022-09-14T02:58:15.535Z,94.55
2022-09-14T03:00:49.300Z,94.31
2022-09-14T03:03:26.283Z,93.98
2022-09-14T03:05:57.291Z,93.59
2022-09-14T03:08:27.663Z,93.13
2022-09-14T03:10:55.831Z,93.16
2022-09-14T03:13:27.329Z,92.99
2022-09-14T03:15:57.652Z,92.82
2022-09-14T03:18:27.551Z,92.97
2022-09-14T03:21:02.764Z,93.12
2022-09-14T03:23:31.825Z,93.52
2022-09-14T03:26:00.126Z,93.57
2022-09-14T03:28:28.329Z,93.53
2022-09-14T03:31:00.498Z,93.66
2022-09-14T03:33:30.192Z,93.68
2022-09-14T03:36:00.488Z,93.72
2022-09-14T03:38:51.243Z,93.55
2022-09-14T03:41:26.019Z,93.49
2022-09-14T03:43:54.616Z,93.28
2022-09-14T03:46:26.604Z,93.30
2022-09-14T03:48:58.497Z,93.17
2022-09-14T03:51:28.909Z,92.85
2022-09-14T03:53:57.363Z,92.81
2022-09-14T03:56:25.579Z,92.79
2022-09-14T03:58:57.038Z,92.86
2022-09-14T04:01:25.511Z,92.64
2022-09-14T04:04:06.327Z,92.50
2022-09-14T04:06:51.401Z,92.42
2022-09-14T04:09:24.991Z,92.34
2022-09-14T04:11:56.156Z,92.47
2022-09-14T04:14:24.455Z,91.92
2022-09-14T04:17:03.408Z,92.17
2022-09-14T04:19:34.876Z,92.02
2022-09-14T04:22:06.229Z,91.75
2022-09-14T04:24:50.273Z,92.10
2022-09-14T04:27:21.983Z,91.75
2022-09-14T04:29:53.047Z,91.87
2022-09-14T04:32:24.063Z,91.53
2022-09-14T04:34:59.053Z,91.52
2022-09-14T04:37:30.643Z,91.55
2022-09-14T04:39:59.224Z,91.46
2022-09-14T04:42:29.614Z,91.03
2022-09-14T04:44:57.837Z,91.13
2022-09-14T04:47:26.093Z,90.50
2022-09-14T04:49:57.743Z,90.10
2022-09-14T04:52:26.579Z,90.28
2022-09-14T04:54:55.111Z,90.27
2022-09-14T04:57:23.947Z,89.89
2022-09-14T04:59:52.191Z,90.05
2022-09-14T05:02:20.957Z,89.97
2022-09-14T05:04:49.169Z,89.74
2022-09-14T05:07:22.631Z,89.93
2022-09-14T05:09:58.961Z,89.79
2022-09-14T05:12:35.569Z,89.60
2022-09-14T05:15:05.197Z,89.62
2022-09-14T05:17:42.611Z,89.41
2022-09-14T05:20:17.135Z,89.28
2022-09-14T05:22:49.237Z,89.00
2022-09-14T05:25:23.280Z,88.88
2022-09-14T05:27:51.722Z,89.00
2022-09-14T05:30:20.754Z,88.66
2022-09-14T05:33:09.025Z,88.92
2022-09-14T05:35:45.745Z,88.66
2022-09-14T05:38:18.107Z,88.36
2022-09-14T05:40:49.284Z,88.17
2022-09-14T05:43:17.456Z,88.10
2022-09-14T05:45:49.268Z,87.72
2022-09-14T05:48:21.291Z,87.53
2022-09-14T05:50:58.886Z,87.33
2022-09-14T05:53:27.790Z,87.12
2022-09-14T05:56:19.717Z,86.76
2022-09-14T05:58:54.794Z,86.29
2022-09-14T06:01:37.803Z,86.44
2022-09-14T06:04:11.091Z,85.99
2022-09-14T06:07:14.632Z,85.76
2022-09-14T06:09:42.867Z,85.73
2022-09-14T06:12:12.032Z,85.58
2022-09-14T06:14:41.048Z,85.45
2022-09-14T06:17:09.550Z,85.16
2022-09-14T06:19:37.637Z,84.72
2022-09-14T06:22:05.910Z,84.78
2022-09-14T06:24:34.022Z,84.55
2022-09-14T06:27:03.670Z,84.21
2022-09-14T06:29:32.261Z,84.31
2022-09-14T06:32:00.615Z,83.98
2022-09-14T06:34:28.918Z,83.70
2022-09-14T06:37:00.268Z,83.76
2022-09-14T06:39:31.926Z,83.65
2022-09-14T06:42:00.337Z,83.50
2022-09-14T06:44:28.679Z,83.37
2022-09-14T06:46:59.483Z,82.86
2022-09-14T06:49:37.340Z,82.70
2022-09-14T06:52:05.839Z,82.44
2022-09-14T06:54:41.698Z,82.06
2022-09-14T06:57:10.112Z,82.01
2022-09-14T06:59:40.503Z,81.75
2022-09-14T07:02:14.290Z,81.81
2022-09-14T07:04:43.083Z,81.75
2022-09-14T07:07:15.608Z,81.60
2022-09-14T07:09:44.109Z,81.44
2022-09-14T07:12:12.179Z,81.28
2022-09-14T07:14:41.946Z,81.34
2022-09-14T07:17:10.453Z,81.15
2022-09-14T07:19:38.993Z,81.04
2022-09-14T07:22:10.231Z,81.19
2022-09-14T07:24:39.099Z,81.15
2022-09-14T07:27:14.700Z,80.73
2022-09-14T07:29:46.174Z,80.47
2022-09-14T07:32:14.275Z,80.57
2022-09-14T07:34:42.639Z,80.61
2022-09-14T07:37:12.135Z,80.29
2022-09-14T07:39:41.290Z,80.31
2022-09-14T07:42:10.519Z,79.86
2022-09-14T07:44:38.789Z,79.68
2022-09-14T07:47:07.251Z,79.64
2022-09-14T07:49:35.594Z,79.38
2022-09-14T07:52:03.688Z,79.36
2022-09-14T07:54:35.627Z,78.93
2022-09-14T07:57:03.968Z,78.78
2022-09-14T07:59:36.029Z,78.75
2022-09-14T08:02:09.190Z,79.00
2022-09-14T08:04:39.543Z,78.69
2022-09-14T08:07:08.188Z,78.52
2022-09-14T08:09:38.680Z,78.15
2022-09-14T08:12:06.927Z,77.63
2022-09-14T08:14:38.522Z,77.50
2022-09-14T08:17:06.940Z,77.28
2022-09-14T08:19:38.640Z,76.98
2022-09-14T08:22:10.140Z,76.48
2022-09-14T08:24:38.889Z,76.28
2022-09-14T08:27:07.404Z,76.20
2022-09-14T08:29:37.628Z,75.84
2022-09-14T08:32:06.083Z,75.59
2022-09-14T08:34:34.460Z,75.42
2022-09-14T08:37:03.210Z,75.06
2022-09-14T08:39:31.936Z,74.91
2022-09-14T08:42:02.277Z,74.92
2022-09-14T08:44:51.583Z,74.50
2022-09-14T08:47:34.444Z,74.32
2022-09-14T08:50:17.509Z,74.01
2022-09-14T08:52:50.626Z,73.46
2022-09-14T08:55:38.188Z,73.86
2022-09-14T08:58:15.136Z,73.74
2022-09-14T09:00:51.530Z,73.67
2022-09-14T09:03:51.988Z,73.80
2022-09-14T09:07:04.002Z,73.85
2022-09-14T09:09:50.601Z,73.44
2022-09-14T09:12:38.736Z,73.58
2022-09-14T09:15:25.440Z,72.74
2022-09-14T09:18:01.593Z,72.13
2022-09-14T09:20:37.126Z,71.42
2022-09-14T09:23:16.066Z,70.96
2022-09-14T09:26:04.148Z,69.81
2022-09-14T09:28:33.915Z,69.48
2022-09-14T09:31:11.464Z,69.92
2022-09-14T09:33:48.503Z,69.53
2022-09-14T09:36:16.666Z,68.34
2022-09-14T09:38:44.888Z,67.60
2022-09-14T09:41:27.309Z,68.35
2022-09-14T09:44:09.558Z,68.04
2022-09-14T09:46:50.601Z,67.72
2022-09-14T09:49:30.593Z,66.94
2022-09-14T09:52:17.523Z,67.33
2022-09-14T09:54:54.114Z,67.13
2022-09-14T09:57:31.915Z,66.16
2022-09-14T10:00:23.324Z,66.28
2022-09-14T10:02:53.372Z,66.82
2022-09-14T10:05:26.100Z,66.46
2022-09-14T10:08:00.397Z,66.54
2022-09-14T10:10:34.958Z,66.47
2022-09-14T10:13:06.304Z,66.57
2022-09-14T10:15:39.119Z,66.52
2022-09-14T10:18:09.588Z,66.01
2022-09-14T10:20:41.012Z,65.59
2022-09-14T10:23:18.354Z,65.31
2022-09-14T10:25:53.156Z,65.57
2022-09-14T10:28:23.248Z,65.48
2022-09-14T10:31:12.244Z,65.43
2022-09-14T10:33:40.770Z,65.25
2022-09-14T10:36:41.920Z,65.65
2022-09-14T10:39:36.302Z,64.93
2022-09-14T10:42:36.862Z,64.88
2022-09-14T10:45:15.155Z,64.68
2022-09-14T10:47:49.411Z,63.98
2022-09-14T10:50:33.348Z,63.80
2022-09-14T10:53:28.033Z,63.87
2022-09-14T10:56:10.464Z,63.74
2022-09-14T10:59:05.965Z,64.76
2022-09-14T11:01:55.663Z,64.24
2022-09-14T11:04:57.362Z,64.04
2022-09-14T11:07:38.395Z,64.12
2022-09-14T11:10:37.889Z,63.98
2022-09-14T11:14:00.257Z,63.97
2022-09-14T11:16:28.527Z,62.58
2022-09-14T11:19:02.814Z,61.98
2022-09-14T11:21:50.483Z,61.47
2022-09-14T11:24:27.096Z,61.54
2022-09-14T11:27:17.318Z,62.00
2022-09-14T11:30:02.084Z,61.11
2022-09-14T11:32:40.127Z,61.35
2022-09-14T11:35:14.172Z,61.21
2022-09-14T11:37:45.865Z,61.29
2022-09-14T11:40:43.747Z,60.98
2022-09-14T11:43:23.827Z,61.51
2022-09-14T11:46:24.495Z,61.31
2022-09-14T11:49:40.676Z,61.47
2022-09-14T11:52:23.524Z,62.27
2022-09-14T11:54:53.284Z,62.54
2022-09-14T11:57:33.507Z,62.64
2022-09-14T12:00:25.669Z,62.88
2022-09-14T12:03:18.343Z,63.83
2022-09-14T12:05:48.262Z,63.98
2022-09-14T12:08:52.331Z,63.87
2022-09-14T12:11:26.587Z,64.40
2022-09-14T12:14:23.474Z,64.44
2022-09-14T12:20:27.711Z,64.91
2022-09-14T12:23:21.277Z,65.36
2022-09-14T12:26:25.367Z,65.08
2022-09-14T12:28:56.530Z,64.91
2022-09-14T12:31:44.274Z,65.02
2022-09-14T12:34:22.607Z,65.27
2022-09-14T12:36:51.588Z,64.98
2022-09-14T12:39:38.254Z,65.05
2022-09-14T12:42:32.359Z,65.10
2022-09-14T12:45:39.170Z,65.16
2022-09-14T12:48:09.198Z,64.89
2022-09-14T12:50:40.818Z,64.99
2022-09-14T12:53:31.913Z,65.23
2022-09-14T12:56:07.170Z,65.07
2022-09-14T12:59:23.823Z,65.20
2022-09-14T13:02:04.544Z,66.05
2022-09-14T13:04:35.175Z,66.04
2022-09-14T13:07:10.990Z,65.79
2022-09-14T13:09:49.911Z,65.89
2022-09-14T13:12:43.471Z,65.74
2022-09-14T13:15:24.510Z,66.15
2022-09-14T13:18:02.932Z,66.49
2022-09-14T13:20:33.654Z,66.56
2022-09-14T13:23:02.722Z,66.74
2022-09-14T13:25:37.459Z,66.67
2022-09-14T13:28:14.093Z,66.86
2022-09-14T13:30:43.414Z,66.30
2022-09-14T13:33:18.168Z,66.70
2022-09-14T13:35:50.812Z,67.17
2022-09-14T13:38:26.133Z,66.81
2022-09-14T13:40:56.912Z,66.82
2022-09-14T13:43:25.082Z,66.66
2022-09-14T13:45:56.721Z,66.36
2022-09-14T13:48:25.377Z,66.46
2022-09-14T13:50:54.480Z,66.37
2022-09-14T13:53:48.996Z,66.18
2022-09-14T13:56:32.104Z,66.03
2022-09-14T13:59:07.131Z,66.33
2022-09-14T14:01:42.540Z,66.25
2022-09-14T14:04:27.648Z,66.53
2022-09-14T14:07:04.379Z,65.76
2022-09-14T14:10:04.356Z,65.41
2022-09-14T14:12:42.284Z,65.00
2022-09-14T14:15:14.023Z,64.74
2022-09-14T14:17:42.185Z,64.46
2022-09-14T14:20:43.306Z,64.81
2022-09-14T14:23:13.684Z,64.72
2022-09-14T14:25:48.956Z,64.87
2022-09-14T14:28:23.327Z,65.32
2022-09-14T14:30:53.039Z,65.57
2022-09-14T14:33:22.832Z,65.55
2022-09-14T14:35:55.107Z,65.61
2022-09-14T14:38:27.439Z,65.88
2022-09-14T14:40:56.319Z,66.15
2022-09-14T14:43:26.443Z,66.20
2022-09-14T14:46:01.873Z,66.27
2022-09-14T14:48:30.444Z,66.60
2022-09-14T14:51:02.158Z,66.54
2022-09-14T14:53:31.087Z,66.47
2022-09-14T14:56:04.472Z,66.47
2022-09-14T14:58:36.291Z,66.55
2022-09-14T15:01:04.981Z,66.43
2022-09-14T15:03:33.261Z,66.21
2022-09-14T15:06:15.771Z,66.65
2022-09-14T15:08:44.545Z,67.08
2022-09-14T15:11:20.279Z,67.46
2022-09-14T15:13:51.226Z,67.34
2022-09-14T15:16:19.509Z,67.38
2022-09-14T15:18:50.790Z,67.55
2022-09-14T15:21:19.008Z,67.61
2022-09-14T15:23:49.327Z,67.55
2022-09-14T15:26:18.188Z,67.47
2022-09-14T15:28:48.631Z,67.68
2022-09-14T15:31:16.912Z,67.73
2022-09-14T15:33:45.268Z,68.10
2022-09-14T15:36:14.352Z,68.32
2022-09-14T15:38:43.258Z,68.52
2022-09-14T15:41:13.107Z,68.48
2022-09-14T15:43:43.906Z,68.50
2022-09-14T15:46:12.391Z,68.40
2022-09-14T15:48:40.615Z,68.00
2022-09-14T15:51:14.657Z,68.24
2022-09-14T15:53:45.930Z,68.45
2022-09-14T15:56:15.946Z,68.74
2022-09-14T15:58:48.322Z,68.58
2022-09-14T16:01:18.764Z,68.56
2022-09-14T16:03:47.658Z,68.46
2022-09-14T16:06:16.038Z,68.55
2022-09-14T16:08:44.485Z,68.78
2022-09-14T16:11:12.761Z,68.68
2022-09-14T16:13:41.354Z,68.64
2022-09-14T16:16:13.957Z,68.61
2022-09-14T16:18:42.578Z,68.88
2022-09-14T16:21:15.950Z,68.56
2022-09-14T16:23:47.959Z,68.89
2022-09-14T16:26:19.636Z,68.88
2022-09-14T16:28:50.220Z,69.04
2022-09-14T16:31:24.600Z,69.21
2022-09-14T16:33:55.525Z,69.29
2022-09-14T16:36:31.577Z,69.46
2022-09-14T16:39:05.504Z,69.36
2022-09-14T16:41:34.034Z,69.61
2022-09-14T16:44:04.407Z,69.51
2022-09-14T16:46:34.507Z,69.58
2022-09-14T16:49:06.029Z,69.53
2022-09-14T16:51:34.840Z,69.73
2022-09-14T16:54:03.291Z,69.65
2022-09-14T16:56:34.308Z,70.08
2022-09-14T16:59:03.702Z,69.72
2022-09-14T17:01:35.529Z,70.09
2022-09-14T17:04:09.852Z,70.30
2022-09-14T17:06:41.482Z,70.31
2022-09-14T17:09:17.727Z,70.36
2022-09-14T17:11:46.933Z,70.62
2022-09-14T17:14:18.481Z,70.51
2022-09-14T17:16:47.553Z,70.66
2022-09-14T17:19:17.608Z,70.60
2022-09-14T17:21:47.663Z,70.63
2022-09-14T17:24:17.828Z,70.83
2022-09-14T17:26:47.371Z,70.86
2022-09-14T17:29:16.463Z,71.04
2022-09-14T17:31:45.712Z,71.03
2022-09-14T17:34:16.859Z,71.19
2022-09-14T17:36:45.763Z,71.04
2022-09-14T17:39:15.758Z,71.00
2022-09-14T17:41:44.443Z,71.11
2022-09-14T17:44:17.175Z,71.33
2022-09-14T17:46:52.551Z,71.40
2022-09-14T17:49:23.266Z,71.67
2022-09-14T17:51:55.117Z,71.39
2022-09-14T17:54:23.927Z,71.54
2022-09-14T17:56:52.895Z,71.83
2022-09-14T17:59:22.194Z,72.00
2022-09-14T18:01:54.167Z,72.15
2022-09-14T18:04:23.319Z,72.11
2022-09-14T18:06:52.351Z,72.06
2022-09-14T18:09:24.459Z,72.24
2022-09-14T18:11:56.288Z,72.38
2022-09-14T18:14:25.930Z,72.63
2022-09-14T18:16:55.256Z,72.88
2022-09-14T18:19:24.811Z,72.97
2022-09-14T18:21:53.156Z,73.07
2022-09-14T18:24:22.485Z,73.01
2022-09-14T18:26:53.750Z,73.26
2022-09-14T18:29:23.932Z,73.28
2022-09-14T18:31:53.732Z,73.73
2022-09-14T18:34:25.865Z,73.69
2022-09-14T18:36:57.852Z,73.86
2022-09-14T18:39:26.376Z,73.95
2022-09-14T18:41:55.057Z,74.03
2022-09-14T18:44:24.616Z,74.27
2022-09-14T18:46:53.177Z,74.38
2022-09-14T18:49:21.672Z,74.57
2022-09-14T18:51:50.559Z,74.63
2022-09-14T18:54:27.835Z,74.70
2022-09-14T18:56:57.029Z,74.81
2022-09-14T18:59:25.719Z,74.80
2022-09-14T19:01:56.756Z,74.75
2022-09-14T19:04:25.610Z,74.87
2022-09-14T19:06:54.728Z,74.79
2022-09-14T19:09:26.249Z,74.93
2022-09-14T19:11:54.716Z,75.01
2022-09-14T19:14:23.783Z,75.05
2022-09-14T19:16:57.863Z,74.90
2022-09-14T19:19:26.481Z,75.07
2022-09-14T19:21:54.808Z,75.13
2022-09-14T19:24:23.120Z,75.21
2022-09-14T19:26:52.855Z,75.37
2022-09-14T19:29:24.259Z,75.43
2022-09-14T19:31:53.653Z,75.22
2022-09-14T19:34:24.937Z,75.27
2022-09-14T19:36:54.673Z,75.42
2022-09-14T19:39:28.540Z,75.58
2022-09-14T19:42:10.360Z,75.58
2022-09-14T19:44:38.802Z,75.51
2022-09-14T19:47:07.492Z,75.76
2022-09-14T19:49:35.872Z,75.64
2022-09-14T19:52:04.513Z,76.01
2022-09-14T19:54:33.606Z,76.02
2022-09-14T19:57:04.114Z,76.03
2022-09-14T19:59:32.534Z,75.92
2022-09-14T20:02:01.411Z,75.87
2022-09-14T20:04:29.826Z,75.78
2022-09-14T20:06:58.571Z,75.62
2022-09-14T20:09:26.801Z,75.62
2022-09-14T20:11:55.005Z,75.53
2022-09-14T20:14:25.404Z,75.56
2022-09-14T20:16:57.945Z,75.38
2022-09-14T20:19:29.110Z,75.27
2022-09-14T20:21:57.508Z,75.23
2022-09-14T20:24:31.334Z,75.27
2022-09-14T20:27:02.413Z,75.24
2022-09-14T20:29:34.699Z,75.30
2022-09-14T20:32:04.701Z,75.46
2022-09-14T20:34:34.582Z,75.91
2022-09-14T20:37:04.105Z,76.26
2022-09-14T20:39:38.931Z,76.71
2022-09-14T20:42:10.548Z,77.09
2022-09-14T20:44:39.018Z,77.77
2022-09-14T20:47:08.042Z,78.17
2022-09-14T20:49:39.213Z,78.75
2022-09-14T20:52:08.566Z,79.05
2022-09-14T20:54:37.114Z,79.15
2022-09-14T20:57:05.949Z,79.54
2022-09-14T20:59:34.897Z,80.02
2022-09-14T21:02:05.734Z,80.43
2022-09-14T21:04:35.788Z,80.79
2022-09-14T21:07:04.312Z,81.20
2022-09-14T21:09:35.497Z,81.59
2022-09-14T21:12:04.550Z,81.94
2022-09-14T21:14:32.815Z,82.49
2022-09-14T21:17:01.994Z,82.81
2022-09-14T21:19:33.212Z,83.30
2022-09-14T21:22:01.465Z,83.77
2022-09-14T21:24:35.252Z,84.20
2022-09-14T21:27:05.011Z,84.51
2022-09-14T21:29:33.261Z,84.98
2022-09-14T21:32:05.611Z,85.17
2022-09-14T21:34:38.919Z,85.52
2022-09-14T21:37:08.394Z,85.72
2022-09-14T21:39:38.231Z,86.07
2022-09-14T21:42:06.760Z,86.41
2022-09-14T21:44:37.569Z,86.67
2022-09-14T21:47:05.832Z,86.96
2022-09-14T21:49:34.713Z,87.22
2022-09-14T21:52:04.372Z,87.31
2022-09-14T21:54:32.647Z,87.63
2022-09-14T21:57:01.100Z,87.74
2022-09-14T21:59:29.265Z,87.80
2022-09-14T22:01:57.756Z,87.91
2022-09-14T22:04:27.744Z,87.92
2022-09-14T22:06:57.930Z,87.99
2022-09-14T22:09:31.995Z,88.41
2022-09-14T22:12:18.003Z,88.56
2022-09-14T22:14:46.721Z,88.82
2022-09-14T22:17:16.770Z,88.86
2022-09-14T22:19:47.526Z,89.15
2022-09-14T22:22:32.580Z,89.47
2022-09-14T22:25:06.621Z,89.39
2022-09-14T22:27:36.002Z,89.68
2022-09-14T22:30:05.113Z,89.77
2022-09-14T22:32:36.378Z,89.99
2022-09-14T22:35:12.704Z,90.35
2022-09-14T22:37:48.977Z,90.53
2022-09-14T22:40:18.073Z,90.67
2022-09-14T22:42:46.395Z,90.71
2022-09-14T22:45:18.588Z,91.10
2022-09-14T22:47:47.886Z,91.11
2022-09-14T22:50:17.915Z,91.41
2022-09-14T22:52:50.764Z,91.65
2022-09-14T22:55:23.320Z,91.71
2022-09-14T22:57:58.718Z,91.69
2022-09-14T23:00:27.584Z,91.74
2022-09-14T23:02:56.288Z,91.88
2022-09-14T23:05:38.404Z,91.84
2022-09-14T23:08:13.416Z,91.98
2022-09-14T23:10:43.634Z,92.08
2022-09-14T23:13:17.478Z,92.33
2022-09-14T23:16:05.573Z,92.48
2022-09-14T23:18:43.282Z,92.78
2022-09-14T23:21:15.415Z,92.48
2022-09-14T23:23:58.196Z,92.23
2022-09-14T23:26:34.876Z,92.61
2022-09-14T23:29:12.647Z,93.02
2022-09-14T23:31:44.619Z,92.95
2022-09-14T23:34:18.321Z,92.85
2022-09-14T23:36:46.681Z,92.99
2022-09-14T23:39:21.312Z,92.94
2022-09-14T23:41:52.420Z,93.00
2022-09-14T23:44:30.578Z,93.34
2022-09-14T23:47:05.074Z,93.62
2022-09-14T23:49:33.607Z,93.79
2022-09-14T23:52:06.367Z,93.77
2022-09-14T23:54:38.156Z,93.92
2022-09-14T23:57:06.577Z,94.09
2022-09-14T23:59:36.344Z,93.86
